sensor_id;sensor_type;location;lat;lon;timestamp;pressure;altitude;pressure_sealevel;temperature;humidity
55347;BME280;41218;55.700;38.270;2023-02-28T00:01:54;100270.78;;;-6.80;67.36
55347;BME280;41218;55.700;38.270;2023-02-28T00:06:54;100260.44;;;-6.88;67.63
55347;BME280;41218;55.700;38.270;2023-02-28T00:11:55;100253.34;;;-6.94;67.65
55347;BME280;41218;55.700;38.270;2023-02-28T00:16:55;100249.50;;;-6.98;67.72
55347;BME280;41218;55.700;38.270;2023-02-28T00:21:56;100242.41;;;-7.05;67.37
55347;BME280;41218;55.700;38.270;2023-02-28T00:26:56;100247.66;;;-7.10;67.81
55347;BME280;41218;55.700;38.270;2023-02-28T00:31:57;100245.72;;;-7.14;67.81
55347;BME280;41218;55.700;38.270;2023-02-28T00:36:57;100246.69;;;-7.20;67.65
55347;BME280;41218;55.700;38.270;2023-02-28T00:41:58;100233.97;;;-7.25;67.66
55347;BME280;41218;55.700;38.270;2023-02-28T00:46:59;100239.34;;;-7.25;68.17
55347;BME280;41218;55.700;38.270;2023-02-28T00:52:00;100211.81;;;-7.32;67.65
55347;BME280;41218;55.700;38.270;2023-02-28T00:57:00;100216.56;;;-7.22;67.98
55347;BME280;41218;55.700;38.270;2023-02-28T01:02:01;100196.03;;;-7.29;67.66
55347;BME280;41218;55.700;38.270;2023-02-28T01:07:02;100199.28;;;-7.27;67.41
55347;BME280;41218;55.700;38.270;2023-02-28T01:12:02;100186.41;;;-7.41;68.01
55347;BME280;41218;55.700;38.270;2023-02-28T01:17:03;100162.38;;;-7.48;67.80
55347;BME280;41218;55.700;38.270;2023-02-28T01:22:05;100166.81;;;-7.42;67.92
55347;BME280;41218;55.700;38.270;2023-02-28T01:27:06;100160.25;;;-7.46;67.97
55347;BME280;41218;55.700;38.270;2023-02-28T01:32:06;100149.19;;;-7.50;68.07
55347;BME280;41218;55.700;38.270;2023-02-28T01:37:07;100146.53;;;-7.50;67.89
55347;BME280;41218;55.700;38.270;2023-02-28T01:42:09;100137.94;;;-7.63;67.23
55347;BME280;41218;55.700;38.270;2023-02-28T01:47:09;100136.56;;;-7.66;67.74
55347;BME280;41218;55.700;38.270;2023-02-28T01:52:11;100124.16;;;-7.67;67.87
55347;BME280;41218;55.700;38.270;2023-02-28T01:57:21;100112.41;;;-7.66;68.04
55347;BME280;41218;55.700;38.270;2023-02-28T02:02:24;100114.13;;;-7.60;68.03
55347;BME280;41218;55.700;38.270;2023-02-28T02:07:26;100083.84;;;-7.72;67.81
55347;BME280;41218;55.700;38.270;2023-02-28T02:12:36;100093.91;;;-7.62;68.11
55347;BME280;41218;55.700;38.270;2023-02-28T02:17:46;100075.06;;;-7.68;68.23
55347;BME280;41218;55.700;38.270;2023-02-28T02:23:03;100077.91;;;-7.57;67.95
55347;BME280;41218;55.700;38.270;2023-02-28T02:38:55;100053.34;;;-7.66;68.20
55347;BME280;41218;55.700;38.270;2023-02-28T02:49:18;100054.22;;;-7.60;68.13
55347;BME280;41218;55.700;38.270;2023-02-28T02:54:23;100042.59;;;-7.66;67.97
55347;BME280;41218;55.700;38.270;2023-02-28T02:59:30;100042.03;;;-7.68;68.01
55347;BME280;41218;55.700;38.270;2023-02-28T03:04:34;100023.38;;;-7.75;68.04
55347;BME280;41218;55.700;38.270;2023-02-28T03:09:36;100014.53;;;-7.75;67.92
55347;BME280;41218;55.700;38.270;2023-02-28T03:20:07;100027.94;;;-7.75;67.76
55347;BME280;41218;55.700;38.270;2023-02-28T03:30:36;99992.06;;;-7.86;68.45
55347;BME280;41218;55.700;38.270;2023-02-28T03:35:47;99980.84;;;-7.83;68.23
55347;BME280;41218;55.700;38.270;2023-02-28T03:40:52;99968.06;;;-7.93;68.31
55347;BME280;41218;55.700;38.270;2023-02-28T03:45:56;99967.19;;;-7.81;68.38
55347;BME280;41218;55.700;38.270;2023-02-28T03:50:58;99957.34;;;-7.76;68.40
55347;BME280;41218;55.700;38.270;2023-02-28T04:01:41;99932.97;;;-7.74;68.42
55347;BME280;41218;55.700;38.270;2023-02-28T04:06:43;99911.66;;;-7.81;68.15
55347;BME280;41218;55.700;38.270;2023-02-28T04:11:46;99914.97;;;-7.74;68.17
55347;BME280;41218;55.700;38.270;2023-02-28T04:16:49;99896.28;;;-7.86;68.41
55347;BME280;41218;55.700;38.270;2023-02-28T04:21:52;99910.09;;;-7.77;68.29
55347;BME280;41218;55.700;38.270;2023-02-28T04:26:55;99906.13;;;-7.74;68.55
55347;BME280;41218;55.700;38.270;2023-02-28T04:31:56;99898.94;;;-7.69;68.62
55347;BME280;41218;55.700;38.270;2023-02-28T04:37:00;99884.16;;;-7.71;68.31
55347;BME280;41218;55.700;38.270;2023-02-28T04:42:00;99889.91;;;-7.62;68.83
55347;BME280;41218;55.700;38.270;2023-02-28T04:47:01;99862.44;;;-7.70;68.06
55347;BME280;41218;55.700;38.270;2023-02-28T04:52:01;99862.34;;;-7.58;68.06
55347;BME280;41218;55.700;38.270;2023-02-28T04:57:02;99855.84;;;-7.62;68.12
55347;BME280;41218;55.700;38.270;2023-02-28T05:02:02;99842.91;;;-7.65;68.09
55347;BME280;41218;55.700;38.270;2023-02-28T05:07:06;99825.19;;;-7.66;68.48
55347;BME280;41218;55.700;38.270;2023-02-28T05:12:08;99827.25;;;-7.51;67.84
55347;BME280;41218;55.700;38.270;2023-02-28T05:17:09;99807.34;;;-7.55;68.21
55347;BME280;41218;55.700;38.270;2023-02-28T05:22:14;99786.44;;;-7.53;67.88
55347;BME280;41218;55.700;38.270;2023-02-28T05:27:16;99775.31;;;-7.40;68.48
55347;BME280;41218;55.700;38.270;2023-02-28T05:32:17;99757.94;;;-7.32;68.30
55347;BME280;41218;55.700;38.270;2023-02-28T05:37:17;99749.44;;;-7.24;68.80
55347;BME280;41218;55.700;38.270;2023-02-28T05:42:18;99740.88;;;-7.21;68.62
55347;BME280;41218;55.700;38.270;2023-02-28T05:47:18;99731.34;;;-7.07;68.06
55347;BME280;41218;55.700;38.270;2023-02-28T05:52:19;99720.63;;;-7.01;68.19
55347;BME280;41218;55.700;38.270;2023-02-28T05:57:19;99711.06;;;-6.92;67.97
55347;BME280;41218;55.700;38.270;2023-02-28T06:02:20;99692.38;;;-6.77;67.84
55347;BME280;41218;55.700;38.270;2023-02-28T06:07:20;99687.88;;;-6.66;67.56
55347;BME280;41218;55.700;38.270;2023-02-28T06:12:22;99684.50;;;-6.51;67.63
55347;BME280;41218;55.700;38.270;2023-02-28T06:17:23;99663.88;;;-6.40;67.61
55347;BME280;41218;55.700;38.270;2023-02-28T06:22:23;99643.22;;;-6.30;67.26
55347;BME280;41218;55.700;38.270;2023-02-28T06:27:24;99627.88;;;-6.34;67.33
55347;BME280;41218;55.700;38.270;2023-02-28T06:32:24;99592.91;;;-6.29;67.03
55347;BME280;41218;55.700;38.270;2023-02-28T06:37:25;99604.25;;;-6.17;66.86
55347;BME280;41218;55.700;38.270;2023-02-28T06:42:26;99604.31;;;-5.96;66.62
55347;BME280;41218;55.700;38.270;2023-02-28T06:47:30;99626.41;;;-5.84;66.38
55347;BME280;41218;55.700;38.270;2023-02-28T06:52:31;99626.50;;;-5.64;65.80
55347;BME280;41218;55.700;38.270;2023-02-28T06:57:33;99598.22;;;-5.46;65.47
55347;BME280;41218;55.700;38.270;2023-02-28T07:02:37;99569.66;;;-5.31;65.60
55347;BME280;41218;55.700;38.270;2023-02-28T07:07:38;99545.97;;;-5.14;64.90
55347;BME280;41218;55.700;38.270;2023-02-28T07:12:40;99544.34;;;-4.94;64.10
55347;BME280;41218;55.700;38.270;2023-02-28T07:17:41;99519.50;;;-4.76;64.48
55347;BME280;41218;55.700;38.270;2023-02-28T07:22:41;99524.00;;;-4.56;64.11
55347;BME280;41218;55.700;38.270;2023-02-28T07:27:42;99502.66;;;-4.47;63.97
55347;BME280;41218;55.700;38.270;2023-02-28T07:32:42;99496.63;;;-4.29;63.39
55347;BME280;41218;55.700;38.270;2023-02-28T07:37:43;99484.72;;;-4.23;62.65
55347;BME280;41218;55.700;38.270;2023-02-28T07:42:44;99462.53;;;-4.09;63.39
55347;BME280;41218;55.700;38.270;2023-02-28T07:47:45;99473.75;;;-3.92;63.20
55347;BME280;41218;55.700;38.270;2023-02-28T07:52:46;99464.75;;;-3.82;62.35
55347;BME280;41218;55.700;38.270;2023-02-28T07:57:46;99463.91;;;-3.77;62.89
55347;BME280;41218;55.700;38.270;2023-02-28T08:02:47;99464.31;;;-3.60;63.20
55347;BME280;41218;55.700;38.270;2023-02-28T08:07:49;99473.81;;;-3.33;62.42
55347;BME280;41218;55.700;38.270;2023-02-28T08:12:50;99457.88;;;-3.35;62.45
55347;BME280;41218;55.700;38.270;2023-02-28T08:17:50;99454.88;;;-3.28;62.67
55347;BME280;41218;55.700;38.270;2023-02-28T08:22:51;99440.19;;;-3.22;62.67
55347;BME280;41218;55.700;38.270;2023-02-28T08:27:52;99414.41;;;-3.14;62.32
55347;BME280;41218;55.700;38.270;2023-02-28T08:32:53;99406.53;;;-3.11;62.66
55347;BME280;41218;55.700;38.270;2023-02-28T08:37:54;99401.50;;;-2.93;63.24
55347;BME280;41218;55.700;38.270;2023-02-28T08:42:54;99386.53;;;-2.86;62.95
55347;BME280;41218;55.700;38.270;2023-02-28T08:47:55;99393.41;;;-2.74;62.58
55347;BME280;41218;55.700;38.270;2023-02-28T08:52:56;99409.50;;;-2.64;62.62
55347;BME280;41218;55.700;38.270;2023-02-28T08:57:56;99429.47;;;-2.60;62.61
55347;BME280;41218;55.700;38.270;2023-02-28T09:02:57;99420.84;;;-2.62;62.65
55347;BME280;41218;55.700;38.270;2023-02-28T09:07:57;99413.34;;;-2.46;62.41
55347;BME280;41218;55.700;38.270;2023-02-28T09:12:58;99395.13;;;-2.40;62.85
55347;BME280;41218;55.700;38.270;2023-02-28T09:17:58;99388.53;;;-2.34;62.95
55347;BME280;41218;55.700;38.270;2023-02-28T09:22:59;99362.78;;;-2.32;62.88
55347;BME280;41218;55.700;38.270;2023-02-28T09:28:00;99351.31;;;-2.43;63.19
55347;BME280;41218;55.700;38.270;2023-02-28T09:33:00;99364.31;;;-2.45;63.32
55347;BME280;41218;55.700;38.270;2023-02-28T09:38:01;99362.94;;;-2.42;64.02
55347;BME280;41218;55.700;38.270;2023-02-28T09:43:03;99363.66;;;-2.36;63.84
55347;BME280;41218;55.700;38.270;2023-02-28T09:48:10;99360.16;;;-2.37;63.96
55347;BME280;41218;55.700;38.270;2023-02-28T09:53:34;99348.34;;;-2.27;63.72
55347;BME280;41218;55.700;38.270;2023-02-28T09:58:49;99337.38;;;-2.17;63.62
55347;BME280;41218;55.700;38.270;2023-02-28T10:14:18;99302.88;;;-2.11;63.59
55347;BME280;41218;55.700;38.270;2023-02-28T10:24:37;99279.34;;;-2.11;63.29
55347;BME280;41218;55.700;38.270;2023-02-28T10:29:43;99255.84;;;-2.15;63.22
55347;BME280;41218;55.700;38.270;2023-02-28T10:34:44;99277.81;;;-2.03;63.34
55347;BME280;41218;55.700;38.270;2023-02-28T10:39:46;99258.28;;;-2.00;63.55
55347;BME280;41218;55.700;38.270;2023-02-28T10:44:47;99248.34;;;-2.05;63.45
55347;BME280;41218;55.700;38.270;2023-02-28T10:49:49;99238.72;;;-2.11;64.03
55347;BME280;41218;55.700;38.270;2023-02-28T10:55:13;99240.75;;;-2.03;63.75
55347;BME280;41218;55.700;38.270;2023-02-28T11:00:21;99231.59;;;-2.07;63.89
55347;BME280;41218;55.700;38.270;2023-02-28T11:05:32;99238.44;;;-1.95;64.14
55347;BME280;41218;55.700;38.270;2023-02-28T11:10:34;99224.59;;;-1.94;63.97
55347;BME280;41218;55.700;38.270;2023-02-28T11:15:35;99219.69;;;-1.92;63.50
55347;BME280;41218;55.700;38.270;2023-02-28T11:20:35;99206.53;;;-1.98;64.05
55347;BME280;41218;55.700;38.270;2023-02-28T11:25:37;99209.34;;;-1.90;64.13
55347;BME280;41218;55.700;38.270;2023-02-28T11:30:40;99190.19;;;-1.93;64.12
55347;BME280;41218;55.700;38.270;2023-02-28T11:35:41;99201.81;;;-1.93;64.47
55347;BME280;41218;55.700;38.270;2023-02-28T11:46:20;99202.09;;;-1.81;64.18
55347;BME280;41218;55.700;38.270;2023-02-28T11:51:32;99214.97;;;-1.72;64.44
55347;BME280;41218;55.700;38.270;2023-02-28T11:56:44;99193.09;;;-1.76;65.42
55347;BME280;41218;55.700;38.270;2023-02-28T12:02:58;99191.25;;;-1.67;65.74
55347;BME280;41218;55.700;38.270;2023-02-28T12:07:31;99188.47;;;-1.62;65.71
55347;BME280;41218;55.700;38.270;2023-02-28T12:12:55;99176.22;;;-1.59;65.75
55347;BME280;41218;55.700;38.270;2023-02-28T12:28:46;99159.44;;;-1.61;66.33
55347;BME280;41218;55.700;38.270;2023-02-28T12:33:52;99159.34;;;-1.56;66.32
55347;BME280;41218;55.700;38.270;2023-02-28T12:38:56;99152.53;;;-1.67;66.60
55347;BME280;41218;55.700;38.270;2023-02-28T12:44:11;99138.91;;;-1.76;66.98
55347;BME280;41218;55.700;38.270;2023-02-28T12:54:37;99121.53;;;-1.75;67.04
55347;BME280;41218;55.700;38.270;2023-02-28T12:59:49;99105.69;;;-1.82;67.54
55347;BME280;41218;55.700;38.270;2023-02-28T13:05:15;99064.28;;;-1.82;67.32
55347;BME280;41218;55.700;38.270;2023-02-28T13:10:20;99076.88;;;-1.77;67.15
55347;BME280;41218;55.700;38.270;2023-02-28T13:15:27;99078.91;;;-1.83;67.29
55347;BME280;41218;55.700;38.270;2023-02-28T13:20:36;99068.75;;;-1.77;67.34
55347;BME280;41218;55.700;38.270;2023-02-28T13:46:32;99044.47;;;-1.83;67.78
55347;BME280;41218;55.700;38.270;2023-02-28T13:51:40;99030.53;;;-1.76;67.74
55347;BME280;41218;55.700;38.270;2023-02-28T13:56:53;99012.16;;;-1.79;67.67
55347;BME280;41218;55.700;38.270;2023-02-28T14:02:18;99036.44;;;-1.74;67.89
55347;BME280;41218;55.700;38.270;2023-02-28T14:07:30;99031.22;;;-1.70;67.70
55347;BME280;41218;55.700;38.270;2023-02-28T14:12:53;99034.09;;;-1.67;67.48
55347;BME280;41218;55.700;38.270;2023-02-28T14:18:00;99025.31;;;-1.72;67.94
55347;BME280;41218;55.700;38.270;2023-02-28T14:28:51;99020.88;;;-1.68;68.34
55347;BME280;41218;55.700;38.270;2023-02-28T14:34:04;99007.34;;;-1.68;68.56
55347;BME280;41218;55.700;38.270;2023-02-28T14:39:20;99000.78;;;-1.67;68.21
55347;BME280;41218;55.700;38.270;2023-02-28T14:44:27;98987.25;;;-1.67;68.33
55347;BME280;41218;55.700;38.270;2023-02-28T14:49:30;98993.84;;;-1.59;68.52
55347;BME280;41218;55.700;38.270;2023-02-28T14:54:31;98978.69;;;-1.61;68.66
55347;BME280;41218;55.700;38.270;2023-02-28T14:59:34;98979.38;;;-1.55;68.74
55347;BME280;41218;55.700;38.270;2023-02-28T15:04:35;98969.16;;;-1.58;68.98
55347;BME280;41218;55.700;38.270;2023-02-28T15:09:35;98966.31;;;-1.53;68.58
55347;BME280;41218;55.700;38.270;2023-02-28T15:14:37;98967.91;;;-1.52;68.79
55347;BME280;41218;55.700;38.270;2023-02-28T15:19:41;98958.16;;;-1.53;69.33
55347;BME280;41218;55.700;38.270;2023-02-28T15:24:48;98949.84;;;-1.56;69.14
55347;BME280;41218;55.700;38.270;2023-02-28T15:29:53;98980.25;;;-1.46;69.75
55347;BME280;41218;55.700;38.270;2023-02-28T15:34:56;98952.81;;;-1.44;69.18
55347;BME280;41218;55.700;38.270;2023-02-28T15:40:04;98957.31;;;-1.39;69.70
55347;BME280;41218;55.700;38.270;2023-02-28T15:45:05;98940.69;;;-1.47;69.56
55347;BME280;41218;55.700;38.270;2023-02-28T15:50:10;98953.97;;;-1.36;69.96
55347;BME280;41218;55.700;38.270;2023-02-28T15:55:26;98929.09;;;-1.38;70.02
55347;BME280;41218;55.700;38.270;2023-02-28T16:00:29;98932.66;;;-1.29;69.69
55347;BME280;41218;55.700;38.270;2023-02-28T16:05:30;98931.91;;;-1.21;69.77
55347;BME280;41218;55.700;38.270;2023-02-28T16:10:32;98909.84;;;-1.28;69.59
55347;BME280;41218;55.700;38.270;2023-02-28T16:15:37;98916.28;;;-1.15;69.55
55347;BME280;41218;55.700;38.270;2023-02-28T16:20:42;98918.53;;;-1.17;69.82
55347;BME280;41218;55.700;38.270;2023-02-28T16:25:45;98898.06;;;-1.24;69.98
55347;BME280;41218;55.700;38.270;2023-02-28T16:30:51;98911.97;;;-1.16;70.44
55347;BME280;41218;55.700;38.270;2023-02-28T16:35:52;98925.41;;;-1.11;70.18
55347;BME280;41218;55.700;38.270;2023-02-28T16:40:55;98925.25;;;-1.06;70.04
55347;BME280;41218;55.700;38.270;2023-02-28T16:45:58;98921.59;;;-1.02;70.40
55347;BME280;41218;55.700;38.270;2023-02-28T16:50:58;98901.03;;;-1.03;70.55
55347;BME280;41218;55.700;38.270;2023-02-28T16:56:00;98902.16;;;-0.95;70.03
55347;BME280;41218;55.700;38.270;2023-02-28T17:01:03;98897.06;;;-0.96;70.56
55347;BME280;41218;55.700;38.270;2023-02-28T17:06:04;98887.38;;;-0.80;70.20
55347;BME280;41218;55.700;38.270;2023-02-28T17:11:05;98875.38;;;-0.88;70.61
55347;BME280;41218;55.700;38.270;2023-02-28T17:16:07;98867.56;;;-0.81;70.12
55347;BME280;41218;55.700;38.270;2023-02-28T17:21:14;98883.69;;;-0.75;70.31
55347;BME280;41218;55.700;38.270;2023-02-28T17:26:17;98881.94;;;-0.71;70.34
55347;BME280;41218;55.700;38.270;2023-02-28T17:31:20;98883.06;;;-0.72;70.39
55347;BME280;41218;55.700;38.270;2023-02-28T17:36:25;98879.22;;;-0.71;70.34
55347;BME280;41218;55.700;38.270;2023-02-28T17:41:26;98900.94;;;-0.71;70.33
55347;BME280;41218;55.700;38.270;2023-02-28T17:46:27;98928.56;;;-0.69;70.37
55347;BME280;41218;55.700;38.270;2023-02-28T17:51:28;98951.78;;;-0.54;70.59
55347;BME280;41218;55.700;38.270;2023-02-28T17:56:29;98943.00;;;-0.91;71.25
55347;BME280;41218;55.700;38.270;2023-02-28T18:01:29;98942.38;;;-0.97;70.45
55347;BME280;41218;55.700;38.270;2023-02-28T18:06:37;98929.22;;;-1.12;70.33
55347;BME280;41218;55.700;38.270;2023-02-28T18:11:46;98923.41;;;-1.28;69.94
55347;BME280;41218;55.700;38.270;2023-02-28T18:16:49;98920.66;;;-1.37;69.65
55347;BME280;41218;55.700;38.270;2023-02-28T18:21:51;98931.19;;;-1.35;69.80
55347;BME280;41218;55.700;38.270;2023-02-28T18:26:52;98919.19;;;-1.43;69.19
55347;BME280;41218;55.700;38.270;2023-02-28T18:31:54;98934.81;;;-1.40;69.54
55347;BME280;41218;55.700;38.270;2023-02-28T18:36:56;98937.16;;;-1.47;68.94
55347;BME280;41218;55.700;38.270;2023-02-28T18:41:57;98946.72;;;-1.50;68.76
55347;BME280;41218;55.700;38.270;2023-02-28T18:46:58;98951.50;;;-1.47;69.20
55347;BME280;41218;55.700;38.270;2023-02-28T18:51:58;98959.66;;;-1.47;69.15
55347;BME280;41218;55.700;38.270;2023-02-28T18:56:59;98954.78;;;-1.58;68.41
55347;BME280;41218;55.700;38.270;2023-02-28T19:02:00;98961.13;;;-1.63;68.16
55347;BME280;41218;55.700;38.270;2023-02-28T19:07:00;98950.75;;;-1.70;68.19
55347;BME280;41218;55.700;38.270;2023-02-28T19:12:01;98967.25;;;-1.57;67.97
55347;BME280;41218;55.700;38.270;2023-02-28T19:17:02;98968.41;;;-1.72;68.04
55347;BME280;41218;55.700;38.270;2023-02-28T19:22:03;98957.38;;;-1.76;68.35
55347;BME280;41218;55.700;38.270;2023-02-28T19:27:03;98977.16;;;-1.75;68.08
55347;BME280;41218;55.700;38.270;2023-02-28T19:32:04;98962.81;;;-1.76;68.02
55347;BME280;41218;55.700;38.270;2023-02-28T19:37:04;98959.91;;;-1.79;67.75
55347;BME280;41218;55.700;38.270;2023-02-28T19:42:08;98959.13;;;-1.80;67.98
55347;BME280;41218;55.700;38.270;2023-02-28T19:47:10;98943.94;;;-1.81;67.94
55347;BME280;41218;55.700;38.270;2023-02-28T19:52:10;98935.56;;;-1.93;67.45
55347;BME280;41218;55.700;38.270;2023-02-28T19:57:11;98931.13;;;-1.89;67.23
55347;BME280;41218;55.700;38.270;2023-02-28T20:02:13;98947.88;;;-1.87;66.96
55347;BME280;41218;55.700;38.270;2023-02-28T20:07:16;98939.91;;;-1.92;66.45
55347;BME280;41218;55.700;38.270;2023-02-28T20:12:16;98939.63;;;-2.05;65.78
55347;BME280;41218;55.700;38.270;2023-02-28T20:17:18;98946.56;;;-2.12;65.66
55347;BME280;41218;55.700;38.270;2023-02-28T20:22:18;98959.00;;;-2.11;65.22
55347;BME280;41218;55.700;38.270;2023-02-28T20:27:19;98959.03;;;-2.25;64.06
55347;BME280;41218;55.700;38.270;2023-02-28T20:32:19;98953.34;;;-2.37;63.15
55347;BME280;41218;55.700;38.270;2023-02-28T20:37:20;98950.06;;;-2.48;63.66
55347;BME280;41218;55.700;38.270;2023-02-28T20:42:20;98950.19;;;-2.53;63.32
55347;BME280;41218;55.700;38.270;2023-02-28T20:47:21;98941.66;;;-2.60;63.03
55347;BME280;41218;55.700;38.270;2023-02-28T20:52:22;98943.78;;;-2.71;63.08
55347;BME280;41218;55.700;38.270;2023-02-28T20:57:22;98937.16;;;-2.79;62.46
55347;BME280;41218;55.700;38.270;2023-02-28T21:02:23;98946.78;;;-2.87;62.84
55347;BME280;41218;55.700;38.270;2023-02-28T21:07:23;98956.28;;;-2.89;62.45
55347;BME280;41218;55.700;38.270;2023-02-28T21:12:25;98958.09;;;-2.98;62.70
55347;BME280;41218;55.700;38.270;2023-02-28T21:17:27;98943.47;;;-3.11;62.89
55347;BME280;41218;55.700;38.270;2023-02-28T21:22:28;98952.88;;;-3.09;61.79
55347;BME280;41218;55.700;38.270;2023-02-28T21:27:28;98959.25;;;-3.18;62.27
55347;BME280;41218;55.700;38.270;2023-02-28T21:32:29;98967.19;;;-3.22;61.56
55347;BME280;41218;55.700;38.270;2023-02-28T21:37:29;98955.03;;;-3.38;61.27
55347;BME280;41218;55.700;38.270;2023-02-28T21:42:30;98955.41;;;-3.45;61.70
55347;BME280;41218;55.700;38.270;2023-02-28T21:47:30;98970.03;;;-3.46;61.80
55347;BME280;41218;55.700;38.270;2023-02-28T21:52:31;98973.91;;;-3.52;60.62
55347;BME280;41218;55.700;38.270;2023-02-28T21:57:31;98966.78;;;-3.62;61.22
55347;BME280;41218;55.700;38.270;2023-02-28T22:02:35;98985.06;;;-3.59;61.45
55347;BME280;41218;55.700;38.270;2023-02-28T22:07:36;98967.44;;;-3.70;61.34
55347;BME280;41218;55.700;38.270;2023-02-28T22:12:36;98961.03;;;-3.74;61.60
55347;BME280;41218;55.700;38.270;2023-02-28T22:17:37;98957.69;;;-3.85;60.89
55347;BME280;41218;55.700;38.270;2023-02-28T22:22:38;98963.16;;;-3.90;60.97
55347;BME280;41218;55.700;38.270;2023-02-28T22:27:38;98966.16;;;-3.92;61.16
55347;BME280;41218;55.700;38.270;2023-02-28T22:32:39;98972.28;;;-3.86;61.43
55347;BME280;41218;55.700;38.270;2023-02-28T22:37:40;98981.31;;;-3.96;61.11
55347;BME280;41218;55.700;38.270;2023-02-28T22:42:40;98982.44;;;-3.97;61.21
55347;BME280;41218;55.700;38.270;2023-02-28T22:47:41;98947.03;;;-4.14;60.75
55347;BME280;41218;55.700;38.270;2023-02-28T22:52:41;98977.47;;;-4.09;61.04
55347;BME280;41218;55.700;38.270;2023-02-28T22:57:42;98981.56;;;-4.11;61.11
55347;BME280;41218;55.700;38.270;2023-02-28T23:02:44;98979.94;;;-4.12;61.21
55347;BME280;41218;55.700;38.270;2023-02-28T23:07:45;98966.59;;;-4.23;61.48
55347;BME280;41218;55.700;38.270;2023-02-28T23:12:46;98974.69;;;-4.23;60.89
55347;BME280;41218;55.700;38.270;2023-02-28T23:17:49;98965.66;;;-4.32;61.11
55347;BME280;41218;55.700;38.270;2023-02-28T23:22:50;98970.81;;;-4.35;61.39
55347;BME280;41218;55.700;38.270;2023-02-28T23:27:50;98967.34;;;-4.36;61.27
55347;BME280;41218;55.700;38.270;2023-02-28T23:32:51;98959.66;;;-4.48;61.43
55347;BME280;41218;55.700;38.270;2023-02-28T23:37:52;98957.47;;;-4.46;61.14
55347;BME280;41218;55.700;38.270;2023-02-28T23:42:54;98965.63;;;-4.51;61.51
55347;BME280;41218;55.700;38.270;2023-02-28T23:47:55;98960.59;;;-4.57;61.33
55347;BME280;41218;55.700;38.270;2023-02-28T23:52:55;98957.66;;;-4.61;61.67
55347;BME280;41218;55.700;38.270;2023-02-28T23:57:57;98949.69;;;-4.71;60.73
